createdAt,value
2023-03-02T00:00:00.127Z, 5.7
2023-03-02T00:02:00.214Z, 7.7
2023-03-02T00:04:00.214Z, 7.7
2023-03-02T00:06:00.106Z, 7.7
2023-03-02T00:08:00.113Z, 5.9
2023-03-02T00:10:00.134Z, 5.9
2023-03-02T00:12:00.124Z, 5.8
2023-03-02T00:14:00.132Z, 5.8
2023-03-02T00:16:00.159Z, 5.8
2023-03-02T00:18:00.113Z, 5.3
2023-03-02T00:20:00.143Z, 5.3
2023-03-02T00:22:00.119Z, 4.7
2023-03-02T00:24:00.148Z, 4.7
2023-03-02T00:26:00.143Z, 4.7
2023-03-02T00:28:00.093Z, 3.7
2023-03-02T00:30:00.082Z, 3.7
2023-03-02T00:32:00.161Z, 3.4
2023-03-02T00:34:00.061Z, 3.4
2023-03-02T00:36:00.121Z, 3.4
2023-03-02T00:38:00.088Z, 3.9
2023-03-02T00:40:00.087Z, 3.9
2023-03-02T00:42:00.059Z, 3.1
2023-03-02T00:44:00.051Z, 3.1
2023-03-02T00:46:00.055Z, 3.1
2023-03-02T00:48:00.048Z, 3.5
2023-03-02T00:50:00.050Z, 3.5
2023-03-02T00:52:00.045Z, 3.3
2023-03-02T00:54:00.033Z, 3.3
2023-03-02T00:56:00.007Z, 3.3
2023-03-02T00:58:00.123Z, 5.3
2023-03-02T01:00:00.142Z, 5.3
2023-03-02T01:02:00.253Z, 3.1
2023-03-02T01:04:00.133Z, 3.1
2023-03-02T01:06:00.119Z, 3.1
2023-03-02T01:08:00.122Z, 3.2
2023-03-02T01:10:00.117Z, 3.2
2023-03-02T01:12:00.108Z, 2.6
2023-03-02T01:14:00.117Z, 2.6
2023-03-02T01:16:00.188Z, 2.6
2023-03-02T01:18:00.176Z, 2.9
2023-03-02T01:20:00.209Z, 2.9
2023-03-02T01:22:00.139Z, 2.5
2023-03-02T01:24:00.142Z, 2.5
2023-03-02T01:26:00.150Z, 2.5
2023-03-02T01:28:00.132Z, 2.8
2023-03-02T01:30:00.123Z, 2.8
2023-03-02T01:32:00.274Z, 2.7
2023-03-02T01:34:00.054Z, 2.7
2023-03-02T01:36:00.114Z, 2.7
2023-03-02T01:38:00.054Z, 3.2
2023-03-02T01:40:00.114Z, 3.2
2023-03-02T01:42:00.093Z, 3.6
2023-03-02T01:44:00.068Z, 3.6
2023-03-02T01:46:00.105Z, 3.6
2023-03-02T01:48:00.040Z, 3.2
2023-03-02T01:50:00.052Z, 3.2
2023-03-02T01:52:00.027Z, 3.5
2023-03-02T01:54:00.024Z, 3.5
2023-03-02T01:56:00.034Z, 3.5
2023-03-02T01:58:00.129Z, 4.1
2023-03-02T02:00:00.127Z, 4.1
2023-03-02T02:02:00.114Z, 3.5
2023-03-02T02:04:00.206Z, 3.5
2023-03-02T02:06:00.131Z, 3.5
2023-03-02T02:08:00.105Z, 4.5
2023-03-02T02:10:00.137Z, 4.5
2023-03-02T02:12:00.120Z, 2.9
2023-03-02T02:14:00.114Z, 2.9
2023-03-02T02:16:00.131Z, 2.9
2023-03-02T02:18:00.123Z, 3
2023-03-02T02:20:00.128Z, 3
2023-03-02T02:22:00.126Z, 4
2023-03-02T02:24:00.110Z, 4
2023-03-02T02:26:00.134Z, 4.7
2023-03-02T02:28:00.101Z, 4.7
2023-03-02T02:30:00.047Z, 4.7
2023-03-02T02:32:00.211Z, 4.4
2023-03-02T02:34:00.032Z, 4.4
2023-03-02T02:36:00.105Z, 3.2
2023-03-02T02:38:00.030Z, 3.2
2023-03-02T02:40:00.038Z, 3.2
2023-03-02T02:41:59.986Z, 3.2
2023-03-02T02:44:00.044Z, 3.2
2023-03-02T02:46:00.152Z, 3.8
2023-03-02T02:48:00.046Z, 3.8
2023-03-02T02:50:00.037Z, 3.8
2023-03-02T02:52:00.048Z, 3.7
2023-03-02T02:54:00.032Z, 3.7
2023-03-02T02:56:00.041Z, 4.6
2023-03-02T02:58:00.121Z, 4.6
2023-03-02T03:00:00.145Z, 4.6
2023-03-02T03:02:00.152Z, 6
2023-03-02T03:04:00.247Z, 6
2023-03-02T03:06:00.124Z, 7.2
2023-03-02T03:08:00.138Z, 7.2
2023-03-02T03:10:00.266Z, 7.2
2023-03-02T03:12:00.151Z, 4.1
2023-03-02T03:14:00.116Z, 4.1
2023-03-02T03:16:00.116Z, 3.7
2023-03-02T03:18:00.130Z, 3.7
2023-03-02T03:20:00.119Z, 3.7
2023-03-02T03:22:00.138Z, 4
2023-03-02T03:24:00.149Z, 4
2023-03-02T03:26:00.121Z, 5.6
2023-03-02T03:28:00.112Z, 5.6
2023-03-02T03:30:00.074Z, 5.6
2023-03-02T03:32:00.168Z, 4.9
2023-03-02T03:34:00.095Z, 4.9
2023-03-02T03:36:00.149Z, 7.4
2023-03-02T03:38:00.056Z, 7.4
2023-03-02T03:40:00.061Z, 7.4
2023-03-02T03:42:00.052Z, 6
2023-03-02T03:44:00.090Z, 6
2023-03-02T03:46:00.113Z, 3.7
2023-03-02T03:48:00.095Z, 3.7
2023-03-02T03:50:00.076Z, 3.7
2023-03-02T03:52:00.060Z, 4.2
2023-03-02T03:54:00.106Z, 4.2
2023-03-02T03:56:00.029Z, 4.3
2023-03-02T03:58:00.142Z, 4.3
2023-03-02T04:00:00.123Z, 4.3
2023-03-02T04:02:00.252Z, 3.7
2023-03-02T04:04:00.113Z, 3.7
2023-03-02T04:06:00.097Z, 5.5
2023-03-02T04:08:00.105Z, 5.5
2023-03-02T04:10:00.134Z, 5.5
2023-03-02T04:12:00.126Z, 6.5
2023-03-02T04:14:00.134Z, 6.5
2023-03-02T04:16:00.195Z, 9.4
2023-03-02T04:18:00.111Z, 9.4
2023-03-02T04:20:00.108Z, 9.4
2023-03-02T04:22:00.115Z, 6.3
2023-03-02T04:24:00.106Z, 6.3
2023-03-02T04:26:00.102Z, 3.9
2023-03-02T04:28:00.095Z, 3.9
2023-03-02T04:30:00.092Z, 3.9
2023-03-02T04:32:00.225Z, 4.7
2023-03-02T04:34:00.055Z, 4.7
2023-03-02T04:36:00.104Z, 4.6
2023-03-02T04:38:00.061Z, 4.6
2023-03-02T04:40:00.065Z, 5.4
2023-03-02T04:42:00.046Z, 5.4
2023-03-02T04:44:00.066Z, 5.4
2023-03-02T04:46:00.167Z, 5.9
2023-03-02T04:48:00.085Z, 5.9
2023-03-02T04:50:00.067Z, 7.3
2023-03-02T04:52:00.065Z, 7.3
2023-03-02T04:54:00.111Z, 7.3
2023-03-02T04:56:00.048Z, 5.6
2023-03-02T04:58:00.116Z, 5.6
2023-03-02T05:00:00.142Z, 5.3
2023-03-02T05:02:00.190Z, 5.3
2023-03-02T05:04:02.533Z, 5.3
2023-03-02T05:06:00.117Z, 5.7
2023-03-02T05:08:00.175Z, 5.7
2023-03-02T05:10:00.175Z, 8.8
2023-03-02T05:12:00.158Z, 8.8
2023-03-02T05:14:00.136Z, 8.8
2023-03-02T05:16:00.176Z, 9.1
2023-03-02T05:18:00.105Z, 9.1
2023-03-02T05:20:00.125Z, 18.7
2023-03-02T05:22:00.101Z, 18.7
2023-03-02T05:24:00.111Z, 18.7
2023-03-02T05:26:00.113Z, 6.8
2023-03-02T05:28:00.129Z, 6.8
2023-03-02T05:30:00.103Z, 6.8
2023-03-02T05:32:00.137Z, 6.8
2023-03-02T05:34:00.088Z, 6.8
2023-03-02T05:36:00.175Z, 6.5
2023-03-02T05:38:00.112Z, 6.5
2023-03-02T05:40:00.062Z, 7.6
2023-03-02T05:42:00.069Z, 7.6
2023-03-02T05:44:00.064Z, 7.6
2023-03-02T05:46:00.061Z, 6.7
2023-03-02T05:48:00.088Z, 6.7
2023-03-02T05:50:00.088Z, 6.5
2023-03-02T05:52:00.070Z, 6.5
2023-03-02T05:54:00.058Z, 6.5
2023-03-02T05:56:00.098Z, 7.3
2023-03-02T05:58:00.111Z, 7.3
2023-03-02T06:00:00.128Z, 9.2
2023-03-02T06:02:00.244Z, 9.2
2023-03-02T06:04:00.131Z, 9.2
2023-03-02T06:06:00.130Z, 13.1
2023-03-02T06:08:00.096Z, 13.1
2023-03-02T06:10:00.149Z, 8.6
2023-03-02T06:12:00.112Z, 8.6
2023-03-02T06:14:00.110Z, 8.6
2023-03-02T06:16:00.237Z, 7.2
2023-03-02T06:18:00.125Z, 7.2
2023-03-02T06:20:00.166Z, 6
2023-03-02T06:22:00.104Z, 6
2023-03-02T06:24:00.129Z, 6
2023-03-02T06:26:00.116Z, 5.1
2023-03-02T06:28:00.081Z, 5.1
2023-03-02T06:30:00.093Z, 6.2
2023-03-02T06:32:00.171Z, 6.2
2023-03-02T06:34:00.034Z, 6.2
2023-03-02T06:36:00.205Z, 5.9
2023-03-02T06:38:00.048Z, 5.9
2023-03-02T06:40:00.045Z, 7.4
2023-03-02T06:42:00.035Z, 7.4
2023-03-02T06:44:00.047Z, 7.4
2023-03-02T06:46:00.181Z, 8
2023-03-02T06:48:00.057Z, 8
2023-03-02T06:50:00.079Z, 11.5
2023-03-02T06:52:00.066Z, 11.5
2023-03-02T06:54:00.096Z, 11.5
2023-03-02T06:56:00.050Z, 11.5
2023-03-02T06:58:00.111Z, 11.5
2023-03-02T07:00:00.149Z, 9.4
2023-03-02T07:02:00.108Z, 9.4
2023-03-02T07:04:00.188Z, 9.1
2023-03-02T07:06:00.101Z, 9.1
2023-03-02T07:08:00.130Z, 9.1
2023-03-02T07:10:00.134Z, 10.5
2023-03-02T07:12:00.116Z, 10.5
2023-03-02T07:14:00.103Z, 8.6
2023-03-02T07:16:00.092Z, 8.6
2023-03-02T07:18:00.113Z, 8.6
2023-03-02T07:20:00.131Z, 6.8
2023-03-02T07:22:00.127Z, 6.8
2023-03-02T07:24:00.096Z, 7.3
2023-03-02T07:26:00.128Z, 7.3
2023-03-02T07:28:00.154Z, 7.3
2023-03-02T07:30:00.097Z, 5.8
2023-03-02T07:32:00.091Z, 5.8
2023-03-02T07:34:00.043Z, 7.1
2023-03-02T07:36:00.119Z, 7.1
2023-03-02T07:38:00.033Z, 7.1
2023-03-02T07:40:00.896Z, 7.6
2023-03-02T07:42:00.038Z, 7.6
2023-03-02T07:44:00.048Z, 10.9
2023-03-02T07:46:00.294Z, 10.9
2023-03-02T07:48:00.049Z, 10.9
2023-03-02T07:50:00.048Z, 8.5
2023-03-02T07:52:00.053Z, 8.5
2023-03-02T07:54:00.050Z, 5.8
2023-03-02T07:56:00.047Z, 5.8
2023-03-02T07:58:00.092Z, 5.8
2023-03-02T08:00:00.163Z, 8.8
2023-03-02T08:02:00.182Z, 8.8
2023-03-02T08:04:00.119Z, 7
2023-03-02T08:06:00.137Z, 6.5
2023-03-02T08:08:00.108Z, 6.5
2023-03-02T08:10:00.117Z, 9.6
2023-03-02T08:12:00.124Z, 9.6
2023-03-02T08:14:00.115Z, 10.3
2023-03-02T08:16:00.201Z, 10.3
2023-03-02T08:18:00.124Z, 10.3
2023-03-02T08:20:00.187Z, 8
2023-03-02T08:22:00.108Z, 8
2023-03-02T08:24:00.226Z, 9.4
2023-03-02T08:26:00.115Z, 9.4
2023-03-02T08:28:00.108Z, 9.4
2023-03-02T08:30:00.093Z, 8.7
2023-03-02T08:32:00.225Z, 8.7
2023-03-02T08:34:00.049Z, 10.2
2023-03-02T08:36:00.136Z, 10.2
2023-03-02T08:38:00.052Z, 10.2
2023-03-02T08:40:00.053Z, 10.5
2023-03-02T08:42:00.020Z, 10.5
2023-03-02T08:44:00.049Z, 10.6
2023-03-02T08:46:00.246Z, 10.6
2023-03-02T08:48:00.105Z, 10.6
2023-03-02T08:50:00.058Z, 12.1
2023-03-02T08:52:00.056Z, 12.1
2023-03-02T08:54:00.069Z, 10.7
2023-03-02T08:56:00.069Z, 10.7
2023-03-02T08:58:00.117Z, 10.7
2023-03-02T09:00:00.127Z, 13.1
2023-03-02T09:02:00.131Z, 13.1
2023-03-02T09:04:00.271Z, 20.2
2023-03-02T09:06:00.103Z, 20.2
2023-03-02T09:08:00.090Z, 20.2
2023-03-02T09:10:00.163Z, 10.4
2023-03-02T09:12:00.112Z, 10.4
2023-03-02T09:14:00.111Z, 12.8
2023-03-02T09:16:00.102Z, 12.8
2023-03-02T09:18:00.122Z, 12.8
2023-03-02T09:20:00.095Z, 9.7
2023-03-02T09:22:00.113Z, 9.7
2023-03-02T09:24:00.144Z, 10.9
2023-03-02T09:26:00.133Z, 10.9
2023-03-02T09:28:00.108Z, 10.9
2023-03-02T09:30:00.047Z, 12.4
2023-03-02T09:32:00.162Z, 12.4
2023-03-02T09:34:00.049Z, 11
2023-03-02T09:36:00.026Z, 11
2023-03-02T09:38:00.137Z, 14.4
2023-03-02T09:40:00.134Z, 14.4
2023-03-02T09:42:00.135Z, 14.4
2023-03-02T09:44:00.291Z, 13.4
2023-03-02T09:46:00.223Z, 13.4
2023-03-02T09:48:00.098Z, 12
2023-03-02T09:50:00.139Z, 12
2023-03-02T09:52:00.114Z, 12
2023-03-02T09:54:00.178Z, 9.9
2023-03-02T09:56:00.224Z, 9.9
2023-03-02T09:58:00.114Z, 15.6
2023-03-02T10:00:09.390Z, 15.6
2023-03-02T10:02:00.068Z, 15.6
2023-03-02T10:04:00.216Z, 12.5
2023-03-02T10:06:00.070Z, 12.5
2023-03-02T10:08:00.055Z, 13
2023-03-02T10:10:00.056Z, 13
2023-03-02T10:12:00.071Z, 13
2023-03-02T10:14:00.071Z, 14.2
2023-03-02T10:16:00.148Z, 14.2
2023-03-02T10:18:00.088Z, 10.9
2023-03-02T10:20:00.080Z, 10.9
2023-03-02T10:22:00.036Z, 10.9
2023-03-02T10:24:00.042Z, 14.9
2023-03-02T10:26:00.046Z, 14.9
2023-03-02T10:28:00.103Z, 11.2
2023-03-02T10:30:00.120Z, 11.2
2023-03-02T10:32:00.294Z, 11.2
2023-03-02T10:34:00.122Z, 13.5
2023-03-02T10:36:00.139Z, 13.5
2023-03-02T10:38:00.146Z, 13.4
2023-03-02T10:40:00.143Z, 13.4
2023-03-02T10:42:00.188Z, 13.4
2023-03-02T10:44:00.107Z, 12.9
2023-03-02T10:46:00.241Z, 12.9
2023-03-02T10:48:00.110Z, 13.5
2023-03-02T10:50:00.155Z, 13.5
2023-03-02T10:52:00.122Z, 13.5
2023-03-02T10:54:00.102Z, 13.6
2023-03-02T10:56:00.107Z, 13.6
2023-03-02T10:58:00.066Z, 12.6
2023-03-02T11:00:00.117Z, 12.6
2023-03-02T11:02:00.239Z, 12.6
2023-03-02T11:04:00.089Z, 12.8
2023-03-02T11:06:00.053Z, 12.8
2023-03-02T11:08:00.160Z, 11.9
2023-03-02T11:10:00.352Z, 11.9
2023-03-02T11:12:00.112Z, 11.9
2023-03-02T11:14:00.069Z, 13.4
2023-03-02T11:16:00.160Z, 13.4
2023-03-02T11:18:00.118Z, 13.8
2023-03-02T11:20:00.088Z, 13.8
2023-03-02T11:22:00.050Z, 13.8
2023-03-02T11:24:00.055Z, 15
2023-03-02T11:26:00.044Z, 15
2023-03-02T11:28:00.098Z, 12.6
2023-03-02T11:30:00.125Z, 12.6
2023-03-02T11:32:00.206Z, 12.6
2023-03-02T11:34:07.971Z, 14.4
2023-03-02T11:36:00.187Z, 14.4
2023-03-02T11:38:00.109Z, 15.7
2023-03-02T11:40:00.124Z, 15.7
2023-03-02T11:42:00.166Z, 15.7
2023-03-02T11:44:00.134Z, 13.2
2023-03-02T11:46:00.118Z, 13.2
2023-03-02T11:48:03.444Z, 12.7
2023-03-02T11:50:00.154Z, 12.7
2023-03-02T11:52:00.128Z, 12.7
2023-03-02T11:54:00.297Z, 14.5
2023-03-02T11:56:00.144Z, 14.5
2023-03-02T12:00:00.099Z, 11
2023-03-02T12:02:00.107Z, 11
2023-03-02T12:04:00.032Z, 14.2
2023-03-02T12:06:00.102Z, 14.2
2023-03-02T12:08:00.065Z, 15.9
2023-03-02T12:10:00.096Z, 15.9
2023-03-02T12:12:00.086Z, 15.9
2023-03-02T12:14:00.053Z, 13.2
2023-03-02T12:16:00.170Z, 13.2
2023-03-02T12:18:00.153Z, 13.2
2023-03-02T12:20:00.050Z, 13.2
2023-03-02T12:22:00.069Z, 13.2
2023-03-02T12:24:00.060Z, 14.6
2023-03-02T12:26:00.081Z, 14.6
2023-03-02T12:28:00.133Z, 14.4
2023-03-02T12:30:00.136Z, 14.4
2023-03-02T12:32:00.344Z, 14.2
2023-03-02T12:34:00.114Z, 13.8
2023-03-02T12:36:00.139Z, 13.8
2023-03-02T12:38:00.259Z, 15
2023-03-02T12:40:02.689Z, 15
2023-03-02T12:42:00.304Z, 13.5
2023-03-02T12:44:00.173Z, 13.5
2023-03-02T12:46:00.235Z, 13.5
2023-03-02T12:48:00.536Z, 13.1
2023-03-02T12:50:00.240Z, 13.1
2023-03-02T12:52:00.393Z, 14.2
2023-03-02T12:54:00.146Z, 14.2
2023-03-02T12:56:00.208Z, 14.2
2023-03-02T12:58:00.197Z, 13.2
2023-03-02T13:00:00.127Z, 13.2
2023-03-02T13:02:00.065Z, 15.4
2023-03-02T13:04:00.125Z, 15.4
2023-03-02T13:06:00.064Z, 15.4
2023-03-02T13:08:00.143Z, 13.3
2023-03-02T13:10:00.146Z, 13.3
2023-03-02T13:12:00.096Z, 15.3
2023-03-02T13:14:00.054Z, 15.3
2023-03-02T13:16:00.080Z, 15.3
2023-03-02T13:18:00.074Z, 13.9
2023-03-02T13:20:00.085Z, 13.9
2023-03-02T13:22:00.097Z, 14.4
2023-03-02T13:24:00.053Z, 14.4
2023-03-02T13:26:00.095Z, 14.4
2023-03-02T13:28:00.108Z, 13.1
2023-03-02T13:30:00.095Z, 13.1
2023-03-02T13:32:00.205Z, 13.8
2023-03-02T13:34:00.118Z, 13.8
2023-03-02T13:36:00.136Z, 13.8
2023-03-02T13:38:00.228Z, 14.2
2023-03-02T13:40:00.124Z, 14.2
2023-03-02T13:42:00.189Z, 13.3
2023-03-02T13:44:00.130Z, 13.3
2023-03-02T13:46:00.208Z, 13.3
2023-03-02T13:48:00.109Z, 13.5
2023-03-02T13:50:00.200Z, 13.5
2023-03-02T13:52:00.102Z, 12.6
2023-03-02T13:54:00.118Z, 12.6
2023-03-02T13:56:00.154Z, 12.6
2023-03-02T13:58:00.105Z, 12.4
2023-03-02T14:00:00.156Z, 12.4
2023-03-02T14:02:00.098Z, 13.6
2023-03-02T14:04:00.190Z, 13.6
2023-03-02T14:06:00.052Z, 13.6
2023-03-02T14:08:00.051Z, 15.3
2023-03-02T14:10:00.044Z, 15.3
2023-03-02T14:12:00.044Z, 12.7
2023-03-02T14:14:00.072Z, 12.7
2023-03-02T14:16:00.190Z, 12.7
2023-03-02T14:18:00.080Z, 13.8
2023-03-02T14:20:00.117Z, 13.8
2023-03-02T14:22:00.117Z, 14.9
2023-03-02T14:24:00.168Z, 14.9
2023-03-02T14:26:00.102Z, 14.9
2023-03-02T14:28:00.123Z, 12.8
2023-03-02T14:30:00.122Z, 12.8
2023-03-02T14:32:00.233Z, 13.1
2023-03-02T14:34:00.106Z, 13.1
2023-03-02T14:36:00.263Z, 13.1
2023-03-02T14:38:00.101Z, 13.4
2023-03-02T14:40:00.170Z, 13.4
2023-03-02T14:42:00.479Z, 13.9
2023-03-02T14:44:00.121Z, 13.9
2023-03-02T14:46:00.218Z, 13.9
2023-03-02T14:48:00.122Z, 14.7
2023-03-02T14:50:00.140Z, 14.7
2023-03-02T14:52:00.112Z, 14.5
2023-03-02T14:54:00.123Z, 14.5
2023-03-02T14:56:00.157Z, 14.5
2023-03-02T14:58:00.063Z, 14.6
2023-03-02T15:00:00.191Z, 14.6
2023-03-02T15:02:10.288Z, 14.6
2023-03-02T15:04:00.041Z, 14.6
2023-03-02T15:06:01.770Z, 14.6
2023-03-02T15:08:00.058Z, 13.2
2023-03-02T15:10:00.113Z, 13.2
2023-03-02T15:12:00.062Z, 12.5
2023-03-02T15:14:00.051Z, 12.5
2023-03-02T15:16:00.158Z, 12.5
2023-03-02T15:18:00.060Z, 14.1
2023-03-02T15:20:00.060Z, 14.1
2023-03-02T15:22:01.109Z, 15.2
2023-03-02T15:24:00.112Z, 15.2
2023-03-02T15:26:00.071Z, 15.2
2023-03-02T15:28:00.143Z, 14.1
2023-03-02T15:30:00.121Z, 14.1
2023-03-02T15:32:00.307Z, 13
2023-03-02T15:34:00.177Z, 13
2023-03-02T15:36:00.205Z, 13
2023-03-02T15:38:00.116Z, 14.5
2023-03-02T15:40:00.136Z, 14.5
2023-03-02T15:42:00.141Z, 13.5
2023-03-02T15:44:00.118Z, 13.5
2023-03-02T15:46:00.122Z, 13.5
2023-03-02T15:48:00.100Z, 19
2023-03-02T15:50:00.122Z, 19
2023-03-02T15:52:00.135Z, 11.6
2023-03-02T15:54:00.111Z, 11.6
2023-03-02T15:56:00.104Z, 11.6
2023-03-02T15:58:00.121Z, 11.6
2023-03-02T16:00:00.136Z, 11.6
2023-03-02T16:02:00.061Z, 12.4
2023-03-02T16:04:00.069Z, 12.4
2023-03-02T16:06:00.108Z, 12.7
2023-03-02T16:08:00.126Z, 12.9
2023-03-02T16:10:00.123Z, 12.9
2023-03-02T16:12:00.107Z, 10.9
2023-03-02T16:14:00.075Z, 10.9
2023-03-02T16:16:00.101Z, 12.5
2023-03-02T16:18:00.077Z, 12.5
2023-03-02T16:20:00.064Z, 12.5
2023-03-02T16:22:00.058Z, 10.2
2023-03-02T16:24:00.081Z, 10.2
2023-03-02T16:26:00.067Z, 12.4
2023-03-02T16:28:00.132Z, 12.4
2023-03-02T16:30:00.152Z, 12.4
2023-03-02T16:32:00.295Z, 12.6
2023-03-02T16:34:00.132Z, 12.6
2023-03-02T16:36:00.132Z, 11
2023-03-02T16:38:00.159Z, 11
2023-03-02T16:40:00.150Z, 11
2023-03-02T16:42:00.174Z, 10.7
2023-03-02T16:44:00.151Z, 10.7
2023-03-02T16:46:00.161Z, 10.3
2023-03-02T16:48:00.137Z, 10.3
2023-03-02T16:50:00.158Z, 10.3
2023-03-02T16:52:00.174Z, 11.6
2023-03-02T16:54:00.144Z, 11.6
2023-03-02T16:56:00.244Z, 8.9
2023-03-02T16:58:00.071Z, 8.9
2023-03-02T17:00:00.130Z, 8.9
2023-03-02T17:02:00.101Z, 10.1
2023-03-02T17:04:00.104Z, 10.1
2023-03-02T17:06:00.066Z, 10.5
2023-03-02T17:08:00.117Z, 10.5
2023-03-02T17:10:00.020Z, 10.5
2023-03-02T17:12:00.012Z, 9.1
2023-03-02T17:14:00.071Z, 9.1
2023-03-02T17:16:00.239Z, 10.4
2023-03-02T17:18:00.095Z, 10.4
2023-03-02T17:20:00.050Z, 10.4
2023-03-02T17:22:00.079Z, 9.2
2023-03-02T17:24:00.104Z, 9.2
2023-03-02T17:26:00.054Z, 7.3
2023-03-02T17:28:00.123Z, 7.3
2023-03-02T17:30:00.097Z, 7.3
2023-03-02T17:32:00.192Z, 7.9
2023-03-02T17:34:00.118Z, 7.9
2023-03-02T17:36:00.136Z, 8.8
2023-03-02T17:38:00.258Z, 8.8
2023-03-02T17:40:00.156Z, 8.8
2023-03-02T17:42:00.175Z, 7.5
2023-03-02T17:44:00.186Z, 7.5
2023-03-02T17:46:00.251Z, 8.6
2023-03-02T17:48:00.137Z, 8.6
2023-03-02T17:50:00.151Z, 8.6
2023-03-02T17:52:00.154Z, 6.9
2023-03-02T17:54:00.122Z, 6.9
2023-03-02T17:56:00.137Z, 6.5
2023-03-02T17:58:00.100Z, 6.5
2023-03-02T18:00:00.095Z, 6.5
2023-03-02T18:02:00.102Z, 6.8
2023-03-02T18:04:00.117Z, 6.8
2023-03-02T18:06:00.059Z, 6.8
2023-03-02T18:08:00.050Z, 6.8
2023-03-02T18:10:00.048Z, 6.8
2023-03-02T18:12:00.029Z, 5.8
2023-03-02T18:14:00.048Z, 5.8
2023-03-02T18:16:00.214Z, 8.2
2023-03-02T18:18:00.059Z, 8.2
2023-03-02T18:20:00.073Z, 8.2
2023-03-02T18:22:00.062Z, 7.4
2023-03-02T18:24:00.059Z, 7.4
2023-03-02T18:26:00.071Z, 6.9
2023-03-02T18:28:00.114Z, 6.9
2023-03-02T18:30:00.193Z, 6.9
2023-03-02T18:32:00.198Z, 7.4
2023-03-02T18:34:00.241Z, 7.4
2023-03-02T18:36:00.112Z, 6.6
2023-03-02T18:38:00.173Z, 6.6
2023-03-02T18:40:00.167Z, 6.6
2023-03-02T18:42:00.149Z, 6.5
2023-03-02T18:44:00.139Z, 6.5
2023-03-02T18:46:00.107Z, 8.6
2023-03-02T18:48:00.114Z, 8.6
2023-03-02T18:50:00.124Z, 8.6
2023-03-02T18:52:00.141Z, 7
2023-03-02T18:54:00.178Z, 7
2023-03-02T18:56:00.115Z, 5.7
2023-03-02T18:58:00.127Z, 5.7
2023-03-02T19:00:00.143Z, 6.2
2023-03-02T19:02:00.128Z, 7.7
2023-03-02T19:04:00.059Z, 7.7
2023-03-02T19:06:00.129Z, 9
2023-03-02T19:08:00.052Z, 9
2023-03-02T19:10:00.180Z, 7.7
2023-03-02T19:12:00.058Z, 7.7
2023-03-02T19:14:00.053Z, 7.7
2023-03-02T19:16:00.081Z, 8.1
2023-03-02T19:18:00.053Z, 8.1
2023-03-02T19:20:00.050Z, 8.9
2023-03-02T19:22:00.039Z, 8.9
2023-03-02T19:24:00.037Z, 8.9
2023-03-02T19:26:00.034Z, 7.5
2023-03-02T19:28:00.143Z, 7.5
2023-03-02T19:30:00.168Z, 8.7
2023-03-02T19:32:00.372Z, 8.7
2023-03-02T19:34:00.148Z, 8.7
2023-03-02T19:36:00.251Z, 8.4
2023-03-02T19:38:00.142Z, 8.4
2023-03-02T19:40:00.139Z, 7.3
2023-03-02T19:42:00.127Z, 7.3
2023-03-02T19:44:00.124Z, 7.3
2023-03-02T19:46:00.225Z, 7.5
2023-03-02T19:48:00.152Z, 7.5
2023-03-02T19:50:00.215Z, 7.6
2023-03-02T19:52:00.141Z, 7.6
2023-03-02T19:54:00.610Z, 7.6
2023-03-02T19:56:00.133Z, 7.1
2023-03-02T19:58:00.236Z, 7.1
2023-03-02T20:00:00.111Z, 7.9
2023-03-02T20:02:00.130Z, 7.9
2023-03-02T20:04:00.182Z, 7.9
2023-03-02T20:06:00.055Z, 7.3
2023-03-02T20:08:00.079Z, 7.3
2023-03-02T20:10:00.044Z, 7.7
2023-03-02T20:12:00.037Z, 7.7
2023-03-02T20:14:00.056Z, 7.7
2023-03-02T20:16:00.088Z, 7.5
2023-03-02T20:18:00.053Z, 7.5
2023-03-02T20:20:00.089Z, 8.1
2023-03-02T20:22:00.064Z, 8.1
2023-03-02T20:24:00.080Z, 8.1
2023-03-02T20:26:00.064Z, 7
2023-03-02T20:28:00.106Z, 7
2023-03-02T20:30:00.103Z, 7.2
2023-03-02T20:32:00.139Z, 7.2
2023-03-02T20:34:00.098Z, 7.2
2023-03-02T20:36:00.104Z, 6.5
2023-03-02T20:38:00.102Z, 6.5
2023-03-02T20:40:00.112Z, 5.5
2023-03-02T20:42:00.121Z, 5.5
2023-03-02T20:44:00.107Z, 5.5
2023-03-02T20:46:00.200Z, 6.1
2023-03-02T20:48:00.099Z, 6.1
2023-03-02T20:50:00.141Z, 7.5
2023-03-02T20:52:00.104Z, 7.5
2023-03-02T20:54:00.126Z, 7.5
2023-03-02T20:56:00.123Z, 5.7
2023-03-02T20:58:00.137Z, 5.7
2023-03-02T21:00:00.118Z, 6.5
2023-03-02T21:02:00.085Z, 6.5
2023-03-02T21:04:00.075Z, 6.5
2023-03-02T21:06:00.048Z, 6.9
2023-03-02T21:08:00.073Z, 6.9
2023-03-02T21:10:00.062Z, 5.7
2023-03-02T21:12:00.040Z, 5.7
2023-03-02T21:14:00.041Z, 5.7
2023-03-02T21:16:00.121Z, 5.2
2023-03-02T21:18:00.041Z, 5.2
2023-03-02T21:20:00.094Z, 5.7
2023-03-02T21:22:00.048Z, 5.7
2023-03-02T21:24:00.181Z, 5.7
2023-03-02T21:26:00.113Z, 5.5
2023-03-02T21:28:00.127Z, 5.5
2023-03-02T21:30:00.115Z, 6
2023-03-02T21:32:00.173Z, 6
2023-03-02T21:34:00.184Z, 6
2023-03-02T21:36:00.085Z, 5
2023-03-02T21:38:00.137Z, 5
2023-03-02T21:40:00.153Z, 6.7
2023-03-02T21:42:00.120Z, 6.7
2023-03-02T21:44:00.107Z, 4.6
2023-03-02T21:46:00.092Z, 4.6
2023-03-02T21:48:00.111Z, 4.6
2023-03-02T21:50:00.146Z, 2.8
2023-03-02T21:52:00.133Z, 2.8
2023-03-02T21:54:00.115Z, 2.8
2023-03-02T21:56:00.107Z, 2.8
2023-03-02T21:58:00.093Z, 2.8
2023-03-02T22:00:00.075Z, 3.3
2023-03-02T22:02:00.192Z, 3.3
2023-03-02T22:04:00.100Z, 4
2023-03-02T22:06:00.079Z, 4
2023-03-02T22:08:00.106Z, 4
2023-03-02T22:10:00.258Z, 4
2023-03-02T22:12:00.115Z, 4
2023-03-02T22:14:00.116Z, 5.3
2023-03-02T22:16:00.207Z, 5.3
2023-03-02T22:18:00.105Z, 5.3
2023-03-02T22:20:00.180Z, 6.8
2023-03-02T22:22:00.231Z, 6.8
2023-03-02T22:24:00.108Z, 6.6
2023-03-02T22:26:00.081Z, 6.6
2023-03-02T22:28:00.093Z, 6.6
2023-03-02T22:30:00.097Z, 6
2023-03-02T22:32:00.154Z, 6
2023-03-02T22:34:00.093Z, 4.6
2023-03-02T22:36:00.186Z, 4.6
2023-03-02T22:38:00.127Z, 4.6
2023-03-02T22:40:00.124Z, 5.3
2023-03-02T22:42:00.101Z, 5.3
2023-03-02T22:44:00.117Z, 5.2
2023-03-02T22:46:00.112Z, 5.2
2023-03-02T22:48:00.110Z, 5.2
2023-03-02T22:50:00.109Z, 3.7
2023-03-02T22:52:00.117Z, 3.7
2023-03-02T22:54:00.110Z, 4.5
2023-03-02T22:56:00.157Z, 4.5
2023-03-02T22:58:00.103Z, 4.5
2023-03-02T23:00:00.134Z, 3.6
2023-03-02T23:02:00.128Z, 3.6
2023-03-02T23:04:00.252Z, 3.7
2023-03-02T23:06:00.088Z, 3.7
2023-03-02T23:08:00.118Z, 3.7
2023-03-02T23:10:00.115Z, 2.9
2023-03-02T23:12:00.134Z, 2.9
2023-03-02T23:14:00.120Z, 3.3
2023-03-02T23:16:00.120Z, 3.3
2023-03-02T23:18:00.117Z, 3.3
2023-03-02T23:20:00.120Z, 3
2023-03-02T23:22:00.106Z, 3
2023-03-02T23:24:00.119Z, 3.1
2023-03-02T23:26:00.076Z, 3.1
2023-03-02T23:28:00.110Z, 3.1
2023-03-02T23:30:00.067Z, 2.4
2023-03-02T23:32:00.225Z, 2.4
2023-03-02T23:34:00.092Z, 2.3
2023-03-02T23:36:00.112Z, 2.3
2023-03-02T23:38:00.053Z, 2.3
2023-03-02T23:40:00.092Z, 2.4
2023-03-02T23:42:00.120Z, 2.4
2023-03-02T23:44:00.067Z, 15.4
2023-03-02T23:46:00.152Z, 15.4
2023-03-02T23:48:00.075Z, 15.4
2023-03-02T23:50:00.149Z, 2
2023-03-02T23:52:00.050Z, 2
2023-03-02T23:54:00.123Z, 2
2023-03-02T23:56:00.133Z, 2
2023-03-02T23:58:00.093Z, 2
